Escribe el Código OACI del Aeropuerto

Buscar por Aeropuerto o Ciudad

Información Meteorológica Actual

LEGR | Federico García Lorca Airport (Granada Jaén Airport)

Granada, Andalusia, Spain

Última Actualización Hace 15 Minutos

Cielo Despejado

17 ºC de Temperatura

Viento Calmo

Temperatura

17 ºC

Temperatura del Punto de Rocío

06 ºC

Humedad Relativa

48.44 %

Dirección del Viento

No Hay

Velocidad del Viento

0 km/h (0 kt)

Ráfagas

No Hay

Visibilidad

Sin Reducciones de Consideración

Presión Reducida a Nivel del Mar

1020 hPa (Hectopascales)

Capas de Nubes

No Hay

METAR LEGR 071430Z 00000KT CAVOK 17/06 Q1020

Pronóstico Meteorológico

LEGR | Federico García Lorca Airport (Granada Jaén Airport)

Granada, Andalusia, Spain

Pronóstico válido para las próximas 21 Horas

A partir de este momento se espera:

Cielo Despejado

Vientos Leves de Direcciones Variables

A partir de este momento se esperan 5 horas con períodos intermitentes de:

Vientos Moderados del Oeste

En 6 horas se espera el comienzo de 13 horas con períodos intermitentes de:

Cielo Mayormente Nublado

En 12 horas se espera el comienzo de 6 horas con períodos intermitentes de:

Lluvia, Neblina

Vientos Moderados del Oeste

Temperatura Máxima

17 ºC en 0 Horas

Temperatura Mínima

05 ºC en 16 Horas

TAF LEGR 071100Z 0712/0812 VRB02KT CAVOK TX17/0715Z TN05/0807Z TEMPO 0715/0720 27010KT TEMPO 0721/0810 BKN014 PROB40 TEMPO 0803/0809 27010KT 4000 RA BR BKN008